OOCL Oakland — 3EKJ6 — position and weather

sailwx.info

Track history (hours):
 
Tides and Currents Weather Stations Pressure Air Temp Water Temp Dewpoint Dewpoint Depression Visibility Wind Speed Wind Dir Waves Ship Positions

OOCL Oakland

Last reported at 2017-Nov-25 00:57 UTC. Time now 2017-Nov-25 05:59 UTC.
Position N 01°17' E 103°22'.

Length 280 m; draft 11.6 m.

Type: Ship. MMSI: 372703235.

Date/timePositionNaut miles runAvg speedWind from/ knotsBaromVisibWave heightAir tempDewpointWater temp
2017-Nov-25 00:57N 01°17' E 103°22'1018.9
2017-Nov-25 00:26N 01°12' E 103°30'819.4
2017-Nov-25 00:00N 01°11' E 103°38'816.9
2017-Nov-24 23:30N 01°10' E 103°47'713.6
2017-Nov-24 23:00N 01°14' E 103°52'3 6.0
2017-Nov-24 22:30N 01°16' E 103°50'0 0.3
2017-Nov-24 21:51N 01°16' E 103°50'0 0.0
2017-Nov-24 21:27N 01°16' E 103°50'0 0.0
2017-Nov-24 20:51N 01°16' E 103°50'0 0.0
2017-Nov-24 20:27N 01°16' E 103°50'0 0.0
2017-Nov-24 19:57N 01°16' E 103°50'0 0.0
2017-Nov-24 19:27N 01°16' E 103°50'0 0.0
2017-Nov-24 18:57N 01°16' E 103°50'0 0.0
2017-Nov-24 18:27N 01°16' E 103°50'0 0.0
2017-Nov-24 18:00N 01°16' E 103°50'0 0.0
2017-Nov-24 17:30N 01°16' E 103°50'0 0.0
2017-Nov-24 17:00N 01°16' E 103°50'0 0.0
2017-Nov-24 16:27N 01°16' E 103°50'0 0.0
2017-Nov-24 15:57N 01°16' E 103°50'0 0.0
2017-Nov-24 15:27N 01°16' E 103°50'0 0.0
2017-Nov-24 14:57N 01°16' E 103°50'0 0.0
2017-Nov-24 14:27N 01°16' E 103°50'0 0.0
2017-Nov-24 13:54N 01°16' E 103°50'0 0.0
2017-Nov-24 13:27N 01°16' E 103°50'0 0.0
2017-Nov-24 13:00N 01°16' E 103°50'0 0.0
2017-Nov-24 12:30N 01°16' E 103°50'0 0.0
2017-Nov-24 12:00N 01°16' E 103°50'0 0.0
2017-Nov-24 11:30N 01°16' E 103°50'0 0.0
2017-Nov-24 11:00N 01°16' E 103°50'0 0.1
2017-Nov-24 10:30N 01°16' E 103°50'1 2.3
2017-Nov-24 10:00N 01°15' E 103°51'2 3.7
2017-Nov-24 09:30N 01°14' E 103°53'3 5.8
2017-Nov-24 09:00N 01°12' E 103°50'4 8.9
2017-Nov-24 08:30N 01°15' E 103°47'1 2.0
2017-Nov-24 08:00N 01°16' E 103°47'0 0.0
2017-Nov-24 07:30N 01°16' E 103°47'0 0.0
2017-Nov-24 07:00N 01°16' E 103°47'0 0.1
2017-Nov-24 06:30N 01°16' E 103°47'0 0.1
2017-Nov-24 05:57N 01°16' E 103°47'0 0.1
2017-Nov-24 05:30N 01°16' E 103°47'0 0.1
2017-Nov-24 04:57N 01°16' E 103°47'0 0.0
2017-Nov-24 04:27N 01°16' E 103°47'0 0.0
2017-Nov-24 04:00N 01°16' E 103°47'0 0.0
2017-Nov-24 03:30N 01°16' E 103°47'0 0.0
2017-Nov-24 03:00N 01°16' E 103°47'0 0.0
2017-Nov-24 02:30N 01°16' E 103°47'0 0.0
2017-Nov-24 01:57N 01°16' E 103°47'0 0.0
2017-Nov-24 01:30N 01°16' E 103°47'0 0.0
2017-Nov-24 01:00N 01°16' E 103°47'0 0.0
2017-Nov-24 00:30N 01°16' E 103°47'0 0.0
2017-Nov-24 00:00N 01°16' E 103°47'0 0.1
2017-Nov-23 23:30N 01°16' E 103°47'0 0.1
2017-Nov-23 22:57N 01°16' E 103°47'0 0.0
2017-Nov-23 22:27N 01°16' E 103°47'0 0.0
2017-Nov-23 22:00N 01°16' E 103°47'0 0.0
2017-Nov-23 21:30N 01°16' E 103°47'0 0.0
2017-Nov-23 20:54N 01°16' E 103°47'0 0.0
2017-Nov-23 20:30N 01°16' E 103°47'0 0.0
2017-Nov-23 20:00N 01°16' E 103°47'0 0.0
2017-Nov-23 19:30N 01°16' E 103°47'0 0.0
2017-Nov-23 19:00N 01°16' E 103°47'0 0.1
2017-Nov-23 18:30N 01°16' E 103°47'0 0.1
2017-Nov-23 18:00N 01°16' E 103°47'0 0.0
2017-Nov-23 17:30N 01°16' E 103°47'0 0.0
2017-Nov-23 17:01N 01°16' E 103°47'0 0.0
2017-Nov-23 16:25N 01°16' E 103°47'0 0.0
2017-Nov-23 16:01N 01°16' E 103°47'0 0.1
2017-Nov-23 15:24N 01°16' E 103°47'0 0.1
2017-Nov-23 15:00N 01°16' E 103°47'0 0.1
2017-Nov-23 14:24N 01°16' E 103°47'0 0.0
2017-Nov-23 14:00N 01°16' E 103°47'0 0.1
2017-Nov-23 13:30N 01°16' E 103°47'0 0.0
2017-Nov-23 13:00N 01°16' E 103°47'0 0.0
2017-Nov-23 12:24N 01°16' E 103°47'0 0.0
2017-Nov-23 12:00N 01°16' E 103°47'1 1.3
2017-Nov-23 11:30N 01°15' E 103°47'4 8.6
2017-Nov-23 11:00N 01°12' E 103°50'510.5
2017-Nov-23 10:30N 01°14' E 103°55'4 8.6
2017-Nov-23 10:01N 01°15' E 103°59'2213.8
2017-Nov-23 08:27N 01°19' E 104°20'  
2017-Nov-16 07:16N 01°16' E 104°11'410.9
2017-Nov-16 06:55N 01°16' E 104°07'511.1
2017-Nov-16 06:30N 01°15' E 104°02'510.9
2017-Nov-16 06:00N 01°13' E 103°57'510.9
2017-Nov-16 05:30N 01°11' E 103°52'4 7.3
2017-Nov-16 05:00N 01°12' E 103°49'4 7.9
2017-Nov-16 04:30N 01°16' E 103°46'1 1.3
2017-Nov-16 03:59N 01°16' E 103°47'0 0.0
2017-Nov-16 03:29N 01°16' E 103°47'0 0.0
2017-Nov-16 02:59N 01°16' E 103°47'0 0.0
2017-Nov-16 02:29N 01°16' E 103°47'0 0.0
2017-Nov-16 01:59N 01°16' E 103°47'0 0.0
2017-Nov-16 01:26N 01°16' E 103°47'0 0.1
2017-Nov-16 00:56N 01°16' E 103°47'0 0.1
2017-Nov-16 00:29N 01°16' E 103°47'0 0.0
2017-Nov-15 23:59N 01°16' E 103°47'0 0.0
2017-Nov-15 23:29N 01°16' E 103°47'0 0.0
2017-Nov-15 22:59N 01°16' E 103°47'0 0.0
2017-Nov-15 22:29N 01°16' E 103°47'0 0.0
2017-Nov-15 21:59N 01°16' E 103°47'0 0.0
2017-Nov-15 21:29N 01°16' E 103°47'0 0.0
2017-Nov-15 20:59N 01°16' E 103°47'0 0.0
2017-Nov-15 20:29N 01°16' E 103°47'0 0.0
2017-Nov-15 19:59N 01°16' E 103°47'0 0.0
2017-Nov-15 19:29N 01°16' E 103°47'0 0.0
2017-Nov-15 18:59N 01°16' E 103°47'0 0.0
2017-Nov-15 18:29N 01°16' E 103°47'0 0.1
2017-Nov-15 17:59N 01°16' E 103°47'0 0.1
2017-Nov-15 17:29N 01°16' E 103°47'0 0.0
2017-Nov-15 16:59N 01°16' E 103°47'0 0.0
2017-Nov-15 16:29N 01°16' E 103°47'0 0.0
2017-Nov-15 15:59N 01°16' E 103°47'0 0.0
2017-Nov-15 15:29N 01°16' E 103°47'0 0.0
2017-Nov-15 14:59N 01°16' E 103°47'0 0.0
2017-Nov-15 14:29N 01°16' E 103°47'0 0.0
2017-Nov-15 13:59N 01°16' E 103°47'0 0.0
2017-Nov-15 13:29N 01°16' E 103°47'0 0.0
2017-Nov-15 12:59N 01°16' E 103°47'0 0.0
2017-Nov-15 12:29N 01°16' E 103°47'0 0.0
2017-Nov-15 11:59N 01°16' E 103°47'0 0.0
2017-Nov-15 11:29N 01°16' E 103°47'0 0.0
2017-Nov-15 10:56N 01°16' E 103°47'0 0.0
2017-Nov-15 10:26N 01°16' E 103°47'0 0.0
2017-Nov-15 09:56N 01°16' E 103°47'0 0.0
2017-Nov-15 09:29N 01°16' E 103°47'0 0.0
2017-Nov-15 08:56N 01°16' E 103°47'0 0.0
2017-Nov-15 08:29N 01°16' E 103°47'0 0.0
2017-Nov-15 07:59N 01°16' E 103°47'0 0.0
2017-Nov-15 07:29N 01°16' E 103°47'0 0.0
2017-Nov-15 06:53N 01°16' E 103°47'0 0.1
2017-Nov-15 06:26N 01°16' E 103°47'0 0.1
2017-Nov-15 05:51N 01°16' E 103°47'0 0.2
2017-Nov-15 05:30N 01°16' E 103°47'1 2.1
2017-Nov-15 05:01N 01°15' E 103°47'4 7.1
2017-Nov-15 04:31N 01°13' E 103°49'4 8.3
2017-Nov-15 04:00N 01°13' E 103°53'5 9.0
2017-Nov-15 03:30N 01°15' E 103°58'  
Track history (hours):
 
Tides and Currents Weather Stations Pressure Air Temp Water Temp Dewpoint Dewpoint Depression Visibility Wind Speed Wind Dir Waves Ship Positions

OOCL Oakland

Last reported at 2017-Nov-25 00:57 UTC. Time now 2017-Nov-25 05:59 UTC.
Position N 01°17' E 103°22'.

Length 280 m; draft 11.6 m.

Type: Ship. MMSI: 372703235.

Date/timePositionNaut miles runAvg speedWind from/ knotsBaromVisibWave heightAir tempDewpointWater temp
2017-Nov-25 00:57N 01°17' E 103°22'1018.9
2017-Nov-25 00:26N 01°12' E 103°30'819.4
2017-Nov-25 00:00N 01°11' E 103°38'816.9
2017-Nov-24 23:30N 01°10' E 103°47'713.6
2017-Nov-24 23:00N 01°14' E 103°52'3 6.0
2017-Nov-24 22:30N 01°16' E 103°50'0 0.3
2017-Nov-24 21:51N 01°16' E 103°50'0 0.0
2017-Nov-24 21:27N 01°16' E 103°50'0 0.0
2017-Nov-24 20:51N 01°16' E 103°50'0 0.0
2017-Nov-24 20:27N 01°16' E 103°50'0 0.0
2017-Nov-24 19:57N 01°16' E 103°50'0 0.0
2017-Nov-24 19:27N 01°16' E 103°50'0 0.0
2017-Nov-24 18:57N 01°16' E 103°50'0 0.0
2017-Nov-24 18:27N 01°16' E 103°50'0 0.0
2017-Nov-24 18:00N 01°16' E 103°50'0 0.0
2017-Nov-24 17:30N 01°16' E 103°50'0 0.0
2017-Nov-24 17:00N 01°16' E 103°50'0 0.0
2017-Nov-24 16:27N 01°16' E 103°50'0 0.0
2017-Nov-24 15:57N 01°16' E 103°50'0 0.0
2017-Nov-24 15:27N 01°16' E 103°50'0 0.0
2017-Nov-24 14:57N 01°16' E 103°50'0 0.0
2017-Nov-24 14:27N 01°16' E 103°50'0 0.0
2017-Nov-24 13:54N 01°16' E 103°50'0 0.0
2017-Nov-24 13:27N 01°16' E 103°50'0 0.0
2017-Nov-24 13:00N 01°16' E 103°50'0 0.0
2017-Nov-24 12:30N 01°16' E 103°50'0 0.0
2017-Nov-24 12:00N 01°16' E 103°50'0 0.0
2017-Nov-24 11:30N 01°16' E 103°50'0 0.0
2017-Nov-24 11:00N 01°16' E 103°50'0 0.1
2017-Nov-24 10:30N 01°16' E 103°50'1 2.3
2017-Nov-24 10:00N 01°15' E 103°51'2 3.7
2017-Nov-24 09:30N 01°14' E 103°53'3 5.8
2017-Nov-24 09:00N 01°12' E 103°50'4 8.9
2017-Nov-24 08:30N 01°15' E 103°47'1 2.0
2017-Nov-24 08:00N 01°16' E 103°47'0 0.0
2017-Nov-24 07:30N 01°16' E 103°47'0 0.0
2017-Nov-24 07:00N 01°16' E 103°47'0 0.1
2017-Nov-24 06:30N 01°16' E 103°47'0 0.1
2017-Nov-24 05:57N 01°16' E 103°47'0 0.1
2017-Nov-24 05:30N 01°16' E 103°47'0 0.1
2017-Nov-24 04:57N 01°16' E 103°47'0 0.0
2017-Nov-24 04:27N 01°16' E 103°47'0 0.0
2017-Nov-24 04:00N 01°16' E 103°47'0 0.0
2017-Nov-24 03:30N 01°16' E 103°47'0 0.0
2017-Nov-24 03:00N 01°16' E 103°47'0 0.0
2017-Nov-24 02:30N 01°16' E 103°47'0 0.0
2017-Nov-24 01:57N 01°16' E 103°47'0 0.0
2017-Nov-24 01:30N 01°16' E 103°47'0 0.0
2017-Nov-24 01:00N 01°16' E 103°47'0 0.0
2017-Nov-24 00:30N 01°16' E 103°47'0 0.0
2017-Nov-24 00:00N 01°16' E 103°47'0 0.1
2017-Nov-23 23:30N 01°16' E 103°47'0 0.1
2017-Nov-23 22:57N 01°16' E 103°47'0 0.0
2017-Nov-23 22:27N 01°16' E 103°47'0 0.0
2017-Nov-23 22:00N 01°16' E 103°47'0 0.0
2017-Nov-23 21:30N 01°16' E 103°47'0 0.0
2017-Nov-23 20:54N 01°16' E 103°47'0 0.0
2017-Nov-23 20:30N 01°16' E 103°47'0 0.0
2017-Nov-23 20:00N 01°16' E 103°47'0 0.0
2017-Nov-23 19:30N 01°16' E 103°47'0 0.0
2017-Nov-23 19:00N 01°16' E 103°47'0 0.1
2017-Nov-23 18:30N 01°16' E 103°47'0 0.1
2017-Nov-23 18:00N 01°16' E 103°47'0 0.0
2017-Nov-23 17:30N 01°16' E 103°47'0 0.0
2017-Nov-23 17:01N 01°16' E 103°47'0 0.0
2017-Nov-23 16:25N 01°16' E 103°47'0 0.0
2017-Nov-23 16:01N 01°16' E 103°47'0 0.1
2017-Nov-23 15:24N 01°16' E 103°47'0 0.1
2017-Nov-23 15:00N 01°16' E 103°47'0 0.1
2017-Nov-23 14:24N 01°16' E 103°47'0 0.0
2017-Nov-23 14:00N 01°16' E 103°47'0 0.1
2017-Nov-23 13:30N 01°16' E 103°47'0 0.0
2017-Nov-23 13:00N 01°16' E 103°47'0 0.0
2017-Nov-23 12:24N 01°16' E 103°47'0 0.0
2017-Nov-23 12:00N 01°16' E 103°47'1 1.3
2017-Nov-23 11:30N 01°15' E 103°47'4 8.6
2017-Nov-23 11:00N 01°12' E 103°50'510.5
2017-Nov-23 10:30N 01°14' E 103°55'4 8.6
2017-Nov-23 10:01N 01°15' E 103°59'2213.8
2017-Nov-23 08:27N 01°19' E 104°20'  
2017-Nov-16 07:16N 01°16' E 104°11'410.9
2017-Nov-16 06:55N 01°16' E 104°07'511.1
2017-Nov-16 06:30N 01°15' E 104°02'510.9
2017-Nov-16 06:00N 01°13' E 103°57'510.9
2017-Nov-16 05:30N 01°11' E 103°52'4 7.3
2017-Nov-16 05:00N 01°12' E 103°49'4 7.9
2017-Nov-16 04:30N 01°16' E 103°46'1 1.3
2017-Nov-16 03:59N 01°16' E 103°47'0 0.0
2017-Nov-16 03:29N 01°16' E 103°47'0 0.0
2017-Nov-16 02:59N 01°16' E 103°47'0 0.0
2017-Nov-16 02:29N 01°16' E 103°47'0 0.0
2017-Nov-16 01:59N 01°16' E 103°47'0 0.0
2017-Nov-16 01:26N 01°16' E 103°47'0 0.1
2017-Nov-16 00:56N 01°16' E 103°47'0 0.1
2017-Nov-16 00:29N 01°16' E 103°47'0 0.0
2017-Nov-15 23:59N 01°16' E 103°47'0 0.0
2017-Nov-15 23:29N 01°16' E 103°47'0 0.0
2017-Nov-15 22:59N 01°16' E 103°47'0 0.0
2017-Nov-15 22:29N 01°16' E 103°47'0 0.0
2017-Nov-15 21:59N 01°16' E 103°47'0 0.0
2017-Nov-15 21:29N 01°16' E 103°47'0 0.0
2017-Nov-15 20:59N 01°16' E 103°47'0 0.0
2017-Nov-15 20:29N 01°16' E 103°47'0 0.0
2017-Nov-15 19:59N 01°16' E 103°47'0 0.0
2017-Nov-15 19:29N 01°16' E 103°47'0 0.0
2017-Nov-15 18:59N 01°16' E 103°47'0 0.0
2017-Nov-15 18:29N 01°16' E 103°47'0 0.1
2017-Nov-15 17:59N 01°16' E 103°47'0 0.1
2017-Nov-15 17:29N 01°16' E 103°47'0 0.0
2017-Nov-15 16:59N 01°16' E 103°47'0 0.0
2017-Nov-15 16:29N 01°16' E 103°47'0 0.0
2017-Nov-15 15:59N 01°16' E 103°47'0 0.0
2017-Nov-15 15:29N 01°16' E 103°47'0 0.0
2017-Nov-15 14:59N 01°16' E 103°47'0 0.0
2017-Nov-15 14:29N 01°16' E 103°47'0 0.0
2017-Nov-15 13:59N 01°16' E 103°47'0 0.0
2017-Nov-15 13:29N 01°16' E 103°47'0 0.0
2017-Nov-15 12:59N 01°16' E 103°47'0 0.0
2017-Nov-15 12:29N 01°16' E 103°47'0 0.0
2017-Nov-15 11:59N 01°16' E 103°47'0 0.0
2017-Nov-15 11:29N 01°16' E 103°47'0 0.0
2017-Nov-15 10:56N 01°16' E 103°47'0 0.0
2017-Nov-15 10:26N 01°16' E 103°47'0 0.0
2017-Nov-15 09:56N 01°16' E 103°47'0 0.0
2017-Nov-15 09:29N 01°16' E 103°47'0 0.0
2017-Nov-15 08:56N 01°16' E 103°47'0 0.0
2017-Nov-15 08:29N 01°16' E 103°47'0 0.0
2017-Nov-15 07:59N 01°16' E 103°47'0 0.0
2017-Nov-15 07:29N 01°16' E 103°47'0 0.0
2017-Nov-15 06:53N 01°16' E 103°47'0 0.1
2017-Nov-15 06:26N 01°16' E 103°47'0 0.1
2017-Nov-15 05:51N 01°16' E 103°47'0 0.2
2017-Nov-15 05:30N 01°16' E 103°47'1 2.1
2017-Nov-15 05:01N 01°15' E 103°47'4 7.1
2017-Nov-15 04:31N 01°13' E 103°49'4 8.3
2017-Nov-15 04:00N 01°13' E 103°53'5 9.0
2017-Nov-15 03:30N 01°15' E 103°58'  

Dump ship's entire track history